Station Historical Data
Daily Summary for January 25, 2017 Units:  English    Metric   Both
« Previous Day
Next Day »
Daily Weekly Monthly Yearly Custom
  High: Low: Average:
Temperature: 47.0 °F 32.0 °F 37.9 °F
Dew Point: 41.8 °F 27.7 °F 34.1 °F
Humidity: 93% 80% 86%
Wind Speed: 16.0mph 0.0mph 4.6mph
Wind Gust: 21.0mph - -
Wind- - SW
Pressure: 29.76 in 29.42 in -
Precipitation: 0.00 in    
Historical Graphs
 
 
Tabular Data for January 25, 2017
Time Temperature Dew Point Pressure Wind Wind Speed Wind Gust Humidity Rainfall Rate (Hourly)
00:04 33.9 °F 29.6 °F 29.70 in West 4.0 mph 8.0 mph 84% 0.00 in
00:09 33.9 °F 29.9 °F 29.70 in West 4.0 mph 8.0 mph 85% 0.00 in
00:14 33.9 °F 29.9 °F 29.70 in West 4.0 mph 8.0 mph 85% 0.00 in
00:19 33.9 °F 29.6 °F 29.71 in West 4.0 mph 8.0 mph 84% 0.00 in
00:24 33.9 °F 29.9 °F 29.71 in WSW 5.0 mph 7.0 mph 85% 0.00 in
00:29 33.9 °F 29.9 °F 29.71 in West 2.0 mph 8.0 mph 85% 0.00 in
00:34 33.9 °F 29.6 °F 29.71 in WNW 8.0 mph 8.0 mph 84% 0.00 in
00:39 34.0 °F 30.0 °F 29.71 in West 4.0 mph 8.0 mph 85% 0.00 in
00:44 34.0 °F 30.0 °F 29.71 in West 4.0 mph 8.0 mph 85% 0.00 in
00:49 34.0 °F 30.0 °F 29.71 in NW 6.0 mph 10.0 mph 85% 0.00 in
00:54 34.0 °F 30.0 °F 29.72 in West 3.0 mph 11.0 mph 85% 0.00 in
00:59 34.0 °F 30.0 °F 29.72 in WNW 4.0 mph 8.0 mph 85% 0.00 in
01:04 34.0 °F 30.0 °F 29.72 in West 4.0 mph 7.0 mph 85% 0.00 in
01:09 34.0 °F 30.0 °F 29.72 in NW 4.0 mph 11.0 mph 85% 0.00 in
01:14 34.0 °F 30.0 °F 29.72 in West 5.0 mph 11.0 mph 85% 0.00 in
01:19 33.9 °F 29.9 °F 29.73 in West 3.0 mph 7.0 mph 85% 0.00 in
01:24 33.9 °F 29.9 °F 29.72 in WNW 6.0 mph 11.0 mph 85% 0.00 in
01:29 33.8 °F 29.8 °F 29.73 in WNW 10.0 mph 12.0 mph 85% 0.00 in
01:34 33.8 °F 29.5 °F 29.73 in WNW 4.0 mph 12.0 mph 84% 0.00 in
01:39 33.8 °F 29.2 °F 29.73 in WNW 2.0 mph 12.0 mph 83% 0.00 in
01:44 33.8 °F 29.2 °F 29.73 in West 5.0 mph 12.0 mph 83% 0.00 in
01:49 33.8 °F 29.2 °F 29.72 in West 5.0 mph 10.0 mph 83% 0.00 in
01:54 33.8 °F 29.2 °F 29.73 in West 6.0 mph 11.0 mph 83% 0.00 in
01:59 33.8 °F 29.2 °F 29.73 in West 5.0 mph 11.0 mph 83% 0.00 in
02:04 33.7 °F 29.1 °F 29.73 in West 4.0 mph 10.0 mph 83% 0.00 in
02:09 33.6 °F 29.0 °F 29.73 in West 7.0 mph 12.0 mph 83% 0.00 in
02:14 33.5 °F 28.9 °F 29.73 in WNW 4.0 mph 11.0 mph 83% 0.00 in
02:19 33.5 °F 28.6 °F 29.73 in West 5.0 mph 11.0 mph 82% 0.00 in
02:24 33.4 °F 28.5 °F 29.74 in West 7.0 mph 9.0 mph 82% 0.00 in
02:29 33.3 °F 28.4 °F 29.73 in West 5.0 mph 8.0 mph 82% 0.00 in
02:34 33.3 °F 28.1 °F 29.74 in WNW 4.0 mph 11.0 mph 81% 0.00 in
02:39 33.1 °F 27.9 °F 29.74 in West 4.0 mph 8.0 mph 81% 0.00 in
02:44 33.0 °F 28.1 °F 29.74 in WNW 2.0 mph 11.0 mph 82% 0.00 in
02:49 32.8 °F 27.9 °F 29.74 in WNW 4.0 mph 11.0 mph 82% 0.00 in
02:54 32.8 °F 27.9 °F 29.74 in WNW 4.0 mph 12.0 mph 82% 0.00 in
02:59 32.7 °F 28.1 °F 29.74 in West 5.0 mph 12.0 mph 83% 0.00 in
03:04 32.5 °F 27.9 °F 29.74 in West 5.0 mph 10.0 mph 83% 0.00 in
03:09 32.4 °F 27.8 °F 29.74 in WNW 8.0 mph 14.0 mph 83% 0.00 in
03:14 32.3 °F 27.7 °F 29.74 in WNW 5.0 mph 14.0 mph 83% 0.00 in
03:19 32.3 °F 27.7 °F 29.74 in West 7.0 mph 10.0 mph 83% 0.00 in
03:24 32.2 °F 27.9 °F 29.75 in WNW 4.0 mph 10.0 mph 84% 0.00 in
03:29 32.1 °F 27.8 °F 29.74 in West 4.0 mph 7.0 mph 84% 0.00 in
03:34 32.0 °F 27.7 °F 29.75 in West 5.0 mph 9.0 mph 84% 0.00 in
03:39 32.0 °F 28.0 °F 29.75 in West 3.0 mph 7.0 mph 85% 0.00 in
03:44 32.1 °F 28.1 °F 29.75 in WSW 3.0 mph 7.0 mph 85% 0.00 in
03:49 32.2 °F 28.2 °F 29.75 in WNW 4.0 mph 7.0 mph 85% 0.00 in
03:54 32.3 °F 28.3 °F 29.75 in West 4.0 mph 9.0 mph 85% 0.00 in
03:59 32.4 °F 28.7 °F 29.75 in West 3.0 mph 9.0 mph 86% 0.00 in
04:04 32.5 °F 28.8 °F 29.75 in West 3.0 mph 8.0 mph 86% 0.00 in
04:09 32.6 °F 28.9 °F 29.75 in West 3.0 mph 6.0 mph 86% 0.00 in
04:14 32.8 °F 29.1 °F 29.75 in West 3.0 mph 6.0 mph 86% 0.00 in
04:19 33.0 °F 29.3 °F 29.76 in West 5.0 mph 8.0 mph 86% 0.00 in
04:24 33.1 °F 29.7 °F 29.76 in WSW 3.0 mph 8.0 mph 87% 0.00 in
04:29 33.3 °F 29.8 °F 29.76 in West 2.0 mph 5.0 mph 87% 0.00 in
04:34 33.4 °F 29.9 °F 29.75 in WSW 3.0 mph 6.0 mph 87% 0.00 in
04:39 33.5 °F 30.0 °F 29.75 in West 3.0 mph 6.0 mph 87% 0.00 in
04:44 33.6 °F 30.1 °F 29.75 in West 3.0 mph 5.0 mph 87% 0.00 in
04:49 33.7 °F 30.2 °F 29.75 in West 3.0 mph 5.0 mph 87% 0.00 in
04:54 33.8 °F 30.3 °F 29.75 in WNW 2.0 mph 6.0 mph 87% 0.00 in
04:59 33.9 °F 30.4 °F 29.75 in West 3.0 mph 6.0 mph 87% 0.00 in
05:04 33.9 °F 30.4 °F 29.75 in West 3.0 mph 5.0 mph 87% 0.00 in
05:09 34.0 °F 30.8 °F 29.75 in West 2.0 mph 7.0 mph 88% 0.00 in
05:14 34.1 °F 30.9 °F 29.75 in West 3.0 mph 6.0 mph 88% 0.00 in
05:19 34.2 °F 31.0 °F 29.75 in West 2.0 mph 7.0 mph 88% 0.00 in
05:24 34.3 °F 31.1 °F 29.75 in WSW 1.0 mph 6.0 mph 88% 0.00 in
05:29 34.3 °F 31.1 °F 29.75 in WSW 3.0 mph 6.0 mph 88% 0.00 in
05:34 34.4 °F 31.5 °F 29.75 in WSW 3.0 mph 8.0 mph 89% 0.00 in
05:39 34.4 °F 31.5 °F 29.76 in WSW 3.0 mph 8.0 mph 89% 0.00 in
05:44 34.6 °F 31.7 °F 29.75 in West 3.0 mph 6.0 mph 89% 0.00 in
05:49 34.6 °F 31.7 °F 29.76 in WSW 3.0 mph 6.0 mph 89% 0.00 in
05:54 34.8 °F 32.2 °F 29.76 in WSW 3.0 mph 6.0 mph 90% 0.00 in
05:59 34.8 °F 32.2 °F 29.76 in SW 3.0 mph 6.0 mph 90% 0.01 in
06:04 35.0 °F 32.4 °F 29.76 in SW 3.0 mph 7.0 mph 90% 0.01 in
06:09 35.0 °F 32.6 °F 29.75 in West 5.0 mph 8.0 mph 91% 0.01 in
06:14 35.1 °F 32.7 °F 29.75 in WSW 2.0 mph 7.0 mph 91% 0.01 in
06:19 35.1 °F 32.7 °F 29.75 in SSW 4.0 mph 8.0 mph 91% 0.01 in
06:24 35.2 °F 32.8 °F 29.75 in West 3.0 mph 6.0 mph 91% 0.01 in
06:29 35.2 °F 32.8 °F 29.75 in West 4.0 mph 7.0 mph 91% 0.01 in
06:34 35.2 °F 32.8 °F 29.75 in WSW 4.0 mph 8.0 mph 91% 0.01 in
06:39 35.2 °F 33.1 °F 29.75 in WSW 3.0 mph 8.0 mph 92% 0.01 in
06:44 35.2 °F 33.1 °F 29.75 in WSW 4.0 mph 11.0 mph 92% 0.01 in
06:49 35.2 °F 33.1 °F 29.75 in WSW 4.0 mph 11.0 mph 92% 0.01 in
06:54 35.2 °F 33.1 °F 29.75 in WNW 3.0 mph 8.0 mph 92% 0.01 in
06:59 35.3 °F 33.2 °F 29.74 in West 4.0 mph 7.0 mph 92% 0.00 in
07:04 35.3 °F 33.2 °F 29.74 in WSW 5.0 mph 10.0 mph 92% 0.00 in
07:09 35.3 °F 33.2 °F 29.74 in WSW 4.0 mph 10.0 mph 92% 0.00 in
07:14 35.3 °F 33.2 °F 29.74 in WSW 4.0 mph 8.0 mph 92% 0.00 in
07:19 35.3 °F 33.2 °F 29.74 in SW 5.0 mph 9.0 mph 92% 0.00 in
07:24 35.3 °F 33.2 °F 29.74 in West 3.0 mph 9.0 mph 92% 0.00 in
07:29 35.3 °F 33.2 °F 29.74 in SW 7.0 mph 8.0 mph 92% 0.01 in
07:34 35.3 °F 33.2 °F 29.74 in SW 7.0 mph 10.0 mph 92% 0.01 in
07:39 35.3 °F 33.2 °F 29.74 in WSW 6.0 mph 11.0 mph 92% 0.01 in
07:44 35.2 °F 33.1 °F 29.74 in WSW 6.0 mph 11.0 mph 92% 0.01 in
07:49 35.3 °F 33.2 °F 29.74 in WSW 7.0 mph 10.0 mph 92% 0.01 in
07:54 35.3 °F 33.2 °F 29.74 in WSW 4.0 mph 11.0 mph 92% 0.01 in
07:59 35.4 °F 33.3 °F 29.74 in West 6.0 mph 10.0 mph 92% 0.01 in
08:04 35.4 °F 33.3 °F 29.73 in WSW 6.0 mph 13.0 mph 92% 0.02 in
08:09 35.5 °F 33.4 °F 29.73 in WSW 7.0 mph 13.0 mph 92% 0.02 in
08:14 35.5 °F 33.4 °F 29.73 in WSW 6.0 mph 12.0 mph 92% 0.02 in
08:19 35.6 °F 33.8 °F 29.74 in WSW 6.0 mph 13.0 mph 93% 0.02 in
08:24 35.7 °F 33.9 °F 29.74 in WSW 6.0 mph 13.0 mph 93% 0.02 in
08:29 35.8 °F 34.0 °F 29.74 in West 5.0 mph 13.0 mph 93% 0.01 in
08:34 35.9 °F 34.1 °F 29.73 in WSW 4.0 mph 12.0 mph 93% 0.01 in
08:39 36.0 °F 34.2 °F 29.73 in WSW 8.0 mph 12.0 mph 93% 0.02 in
08:44 36.0 °F 34.2 °F 29.74 in WSW 6.0 mph 12.0 mph 93% 0.02 in
08:49 36.1 °F 34.3 °F 29.74 in WSW 6.0 mph 12.0 mph 93% 0.02 in
08:54 36.0 °F 34.2 °F 29.74 in WSW 7.0 mph 16.0 mph 93% 0.02 in
08:59 36.0 °F 34.2 °F 29.74 in West 5.0 mph 16.0 mph 93% 0.02 in
09:04 36.0 °F 34.2 °F 29.74 in SW 9.0 mph 13.0 mph 93% 0.02 in
09:09 36.1 °F 34.3 °F 29.74 in WSW 9.0 mph 14.0 mph 93% 0.02 in
09:14 36.1 °F 34.3 °F 29.74 in WSW 7.0 mph 14.0 mph 93% 0.02 in
09:19 36.1 °F 34.3 °F 29.74 in WSW 6.0 mph 12.0 mph 93% 0.02 in
09:24 36.1 °F 34.3 °F 29.73 in WSW 6.0 mph 13.0 mph 93% 0.02 in
09:29 36.2 °F 34.4 °F 29.73 in WSW 6.0 mph 13.0 mph 93% 0.02 in
09:34 36.3 °F 34.5 °F 29.73 in WSW 6.0 mph 10.0 mph 93% 0.03 in
09:39 36.3 °F 34.5 °F 29.72 in West 7.0 mph 11.0 mph 93% 0.02 in
09:44 36.4 °F 34.6 °F 29.72 in WSW 12.0 mph 12.0 mph 93% 0.02 in
09:49 36.4 °F 34.6 °F 29.72 in WSW 6.0 mph 12.0 mph 93% 0.02 in
09:54 36.5 °F 34.7 °F 29.71 in WSW 3.0 mph 12.0 mph 93% 0.02 in
09:59 36.5 °F 34.7 °F 29.71 in SSW 6.0 mph 12.0 mph 93% 0.03 in
10:04 36.6 °F 34.8 °F 29.71 in SW 10.0 mph 11.0 mph 93% 0.02 in
10:09 36.5 °F 34.7 °F 29.72 in SW 5.0 mph 16.0 mph 93% 0.02 in
10:14 36.5 °F 34.7 °F 29.71 in WSW 6.0 mph 13.0 mph 93% 0.02 in
10:19 36.5 °F 34.7 °F 29.72 in WSW 6.0 mph 13.0 mph 93% 0.02 in
10:24 36.7 °F 34.9 °F 29.72 in WSW 7.0 mph 13.0 mph 93% 0.02 in
10:29 36.8 °F 35.0 °F 29.72 in WSW 7.0 mph 14.0 mph 93% 0.02 in
10:34 36.8 °F 34.7 °F 29.72 in WSW 7.0 mph 14.0 mph 92% 0.02 in
10:39 36.9 °F 34.8 °F 29.71 in SSW 7.0 mph 19.0 mph 92% 0.02 in
10:49 37.0 °F 34.9 °F 29.72 in WSW 9.0 mph 15.0 mph 92% 0.02 in
10:54 37.0 °F 34.9 °F 29.73 in WSW 8.0 mph 15.0 mph 92% 0.02 in
10:59 37.0 °F 34.9 °F 29.73 in South 4.0 mph 14.0 mph 92% 0.01 in
11:04 37.1 °F 35.0 °F 29.72 in WSW 4.0 mph 16.0 mph 92% 0.01 in
11:09 37.0 °F 34.9 °F 29.72 in SW 7.0 mph 14.0 mph 92% 0.01 in
11:14 37.0 °F 34.6 °F 29.72 in SW 5.0 mph 18.0 mph 91% 0.01 in
11:19 37.0 °F 34.6 °F 29.71 in WSW 4.0 mph 15.0 mph 91% 0.01 in
11:24 37.2 °F 34.8 °F 29.70 in WSW 7.0 mph 15.0 mph 91% 0.01 in
11:29 37.3 °F 34.9 °F 29.70 in WSW 7.0 mph 14.0 mph 91% 0.01 in
11:34 37.5 °F 34.8 °F 29.70 in WSW 7.0 mph 14.0 mph 90% 0.00 in
11:39 37.7 °F 34.8 °F 29.70 in WSW 8.0 mph 15.0 mph 89% 0.00 in
11:44 37.6 °F 34.7 °F 29.69 in SW 7.0 mph 18.0 mph 89% 0.00 in
11:49 37.5 °F 34.6 °F 29.68 in NW 7.0 mph 14.0 mph 89% 0.00 in
11:54 37.7 °F 34.8 °F 29.67 in WSW 8.0 mph 14.0 mph 89% 0.00 in
11:59 37.8 °F 34.6 °F 29.67 in WSW 7.0 mph 13.0 mph 88% 0.00 in
12:04 38.0 °F 34.8 °F 29.66 in WSW 7.0 mph 13.0 mph 88% 0.00 in
12:09 38.2 °F 35.0 °F 29.67 in West 8.0 mph 11.0 mph 88% 0.00 in
12:14 38.1 °F 34.6 °F 29.68 in WSW 10.0 mph 14.0 mph 87% 0.00 in
12:19 38.0 °F 34.5 °F 29.68 in SW 10.0 mph 20.0 mph 87% 0.00 in
12:24 37.9 °F 34.4 °F 29.68 in WSW 11.0 mph 14.0 mph 87% 0.00 in
12:29 37.7 °F 34.2 °F 29.68 in WSW 7.0 mph 15.0 mph 87% 0.00 in
12:34 37.7 °F 34.2 °F 29.68 in WSW 7.0 mph 15.0 mph 87% 0.00 in
12:39 37.8 °F 34.3 °F 29.68 in WSW 8.0 mph 17.0 mph 87% 0.00 in
12:44 38.1 °F 34.6 °F 29.67 in SSW 10.0 mph 15.0 mph 87% 0.00 in
12:49 38.3 °F 34.5 °F 29.67 in SW 6.0 mph 11.0 mph 86% 0.00 in
12:54 38.4 °F 34.6 °F 29.67 in WSW 13.0 mph 17.0 mph 86% 0.00 in
12:59 38.6 °F 34.5 °F 29.67 in WSW 8.0 mph 17.0 mph 85% 0.00 in
13:04 38.5 °F 34.4 °F 29.67 in WSW 8.0 mph 16.0 mph 85% 0.00 in
13:09 38.5 °F 34.1 °F 29.66 in WSW 8.0 mph 14.0 mph 84% 0.00 in
13:14 38.6 °F 34.2 °F 29.65 in West 4.0 mph 13.0 mph 84% 0.00 in
13:19 38.7 °F 34.0 °F 29.65 in SW 6.0 mph 15.0 mph 83% 0.00 in
13:24 38.9 °F 33.9 °F 29.63 in SW 2.0 mph 12.0 mph 82% 0.00 in
13:29 39.1 °F 34.1 °F 29.63 in West 7.0 mph 11.0 mph 82% 0.00 in
13:34 39.2 °F 33.9 °F 29.63 in WSW 5.0 mph 11.0 mph 81% 0.00 in
13:39 39.3 °F 34.0 °F 29.62 in WSW 5.0 mph 10.0 mph 81% 0.00 in
13:44 39.3 °F 34.0 °F 29.61 in WSW 4.0 mph 11.0 mph 81% 0.00 in
13:49 39.1 °F 33.5 °F 29.61 in SW 8.0 mph 10.0 mph 80% 0.00 in
13:54 39.1 °F 33.8 °F 29.60 in SW 4.0 mph 8.0 mph 81% 0.00 in
13:59 39.1 °F 33.8 °F 29.60 in South 6.0 mph 10.0 mph 81% 0.00 in
14:04 39.0 °F 33.7 °F 29.60 in WSW 5.0 mph 10.0 mph 81% 0.00 in
14:09 38.9 °F 33.3 °F 29.60 in WSW 5.0 mph 10.0 mph 80% 0.00 in
14:14 38.8 °F 33.2 °F 29.60 in WSW 5.0 mph 11.0 mph 80% 0.00 in
14:19 38.8 °F 33.2 °F 29.60 in SW 3.0 mph 8.0 mph 80% 0.00 in
14:24 38.8 °F 33.2 °F 29.60 in SW 3.0 mph 6.0 mph 80% 0.00 in
14:29 38.9 °F 33.6 °F 29.60 in WSW 3.0 mph 6.0 mph 81% 0.00 in
14:34 38.9 °F 33.3 °F 29.59 in WSW 4.0 mph 6.0 mph 80% 0.00 in
14:39 38.9 °F 33.3 °F 29.60 in WSW 3.0 mph 6.0 mph 80% 0.00 in
14:44 38.8 °F 33.2 °F 29.60 in WSW 3.0 mph 7.0 mph 80% 0.00 in
14:49 38.8 °F 33.2 °F 29.59 in WSW 3.0 mph 7.0 mph 80% 0.00 in
14:54 38.9 °F 33.6 °F 29.58 in WSW 1.0 mph 4.0 mph 81% 0.00 in
14:59 39.1 °F 34.1 °F 29.58 in WSW 3.0 mph 4.0 mph 82% 0.00 in
15:04 39.1 °F 33.8 °F 29.57 in Calm   4.0 mph 81% 0.00 in
15:09 39.2 °F 33.9 °F 29.57 in WSW 1.0 mph 4.0 mph 81% 0.00 in
15:14 39.3 °F 33.6 °F 29.57 in West 1.0 mph 4.0 mph 80% 0.00 in
15:19 39.3 °F 34.0 °F 29.58 in WSW 2.0 mph 4.0 mph 81% 0.00 in
15:24 39.3 °F 34.0 °F 29.57 in WSW 2.0 mph 4.0 mph 81% 0.00 in
15:29 39.3 °F 34.0 °F 29.57 in WSW 2.0 mph 4.0 mph 81% 0.00 in
15:34 39.4 °F 34.4 °F 29.57 in WSW 1.0 mph 3.0 mph 82% 0.00 in
15:39 39.6 °F 34.6 °F 29.57 in SSW 2.0 mph 4.0 mph 82% 0.00 in
15:44 39.5 °F 34.2 °F 29.57 in SSW 2.0 mph 4.0 mph 81% 0.00 in
15:49 39.5 °F 34.2 °F 29.58 in SSW 2.0 mph 4.0 mph 81% 0.00 in
15:54 39.5 °F 34.5 °F 29.57 in SSW 1.0 mph 4.0 mph 82% 0.00 in
15:59 39.4 °F 34.4 °F 29.57 in Calm   2.0 mph 82% 0.00 in
16:04 39.3 °F 34.0 °F 29.57 in Calm   1.0 mph 81% 0.00 in
16:09 39.4 °F 34.4 °F 29.57 in SW 1.0 mph 3.0 mph 82% 0.00 in
16:14 39.4 °F 34.4 °F 29.57 in SW 1.0 mph 3.0 mph 82% 0.00 in
16:19 39.4 °F 34.4 °F 29.56 in Calm   3.0 mph 82% 0.00 in
16:24 39.5 °F 34.5 °F 29.55 in ESE 1.0 mph 3.0 mph 82% 0.00 in
16:29 39.6 °F 34.6 °F 29.55 in Calm   2.0 mph 82% 0.00 in
16:34 39.6 °F 34.6 °F 29.54 in East 3.0 mph 3.0 mph 82% 0.00 in
16:39 39.6 °F 34.6 °F 29.53 in ESE 2.0 mph 3.0 mph 82% 0.00 in
16:44 39.6 °F 34.9 °F 29.53 in ESE 1.0 mph 3.0 mph 83% 0.00 in
16:49 39.6 °F 34.9 °F 29.53 in East 1.0 mph 5.0 mph 83% 0.00 in
16:54 39.6 °F 34.9 °F 29.53 in East 1.0 mph 5.0 mph 83% 0.00 in
16:59 39.6 °F 34.9 °F 29.52 in East 1.0 mph 5.0 mph 83% 0.00 in
17:04 39.7 °F 35.0 °F 29.51 in ENE 2.0 mph 5.0 mph 83% 0.00 in
17:09 39.7 °F 35.0 °F 29.51 in Calm   5.0 mph 83% 0.00 in
17:14 39.7 °F 35.0 °F 29.51 in East 1.0 mph 5.0 mph 83% 0.00 in
17:19 39.7 °F 35.0 °F 29.51 in ESE 1.0 mph 5.0 mph 83% 0.00 in
17:24 39.7 °F 35.0 °F 29.51 in Calm   4.0 mph 83% 0.00 in
17:29 39.6 °F 34.9 °F 29.51 in SE 1.0 mph 3.0 mph 83% 0.00 in
17:34 39.6 °F 34.9 °F 29.51 in SE 2.0 mph 5.0 mph 83% 0.00 in
17:39 39.7 °F 35.0 °F 29.50 in ENE 1.0 mph 5.0 mph 83% 0.00 in
17:44 39.7 °F 35.0 °F 29.50 in ESE 1.0 mph 4.0 mph 83% 0.00 in
17:49 39.8 °F 35.1 °F 29.50 in East 1.0 mph 5.0 mph 83% 0.00 in
17:54 39.8 °F 35.1 °F 29.49 in ESE 2.0 mph 5.0 mph 83% 0.00 in
17:59 39.8 °F 35.1 °F 29.49 in ESE 2.0 mph 5.0 mph 83% 0.00 in
18:04 39.8 °F 35.1 °F 29.50 in ESE 1.0 mph 5.0 mph 83% 0.00 in
18:09 39.7 °F 35.0 °F 29.50 in SE 3.0 mph 3.0 mph 83% 0.00 in
18:14 39.7 °F 35.0 °F 29.50 in SE 1.0 mph 4.0 mph 83% 0.00 in
18:19 39.7 °F 35.0 °F 29.50 in SE 1.0 mph 4.0 mph 83% 0.00 in
18:24 39.7 °F 35.3 °F 29.50 in SSE 1.0 mph 4.0 mph 84% 0.00 in
18:29 39.6 °F 34.9 °F 29.49 in SE 2.0 mph 5.0 mph 83% 0.00 in
18:34 39.6 °F 35.2 °F 29.49 in SE 3.0 mph 5.0 mph 84% 0.00 in
18:39 39.6 °F 35.2 °F 29.49 in SE 2.0 mph 4.0 mph 84% 0.00 in
18:44 39.7 °F 35.3 °F 29.50 in Calm   4.0 mph 84% 0.00 in
18:49 39.7 °F 35.3 °F 29.50 in Calm   4.0 mph 84% 0.00 in
18:54 39.6 °F 35.2 °F 29.50 in Calm     84% 0.00 in
18:59 39.6 °F 35.2 °F 29.50 in Calm   5.0 mph 84% 0.00 in
19:04 39.7 °F 35.3 °F 29.50 in SE 1.0 mph 5.0 mph 84% 0.00 in
19:09 39.7 °F 35.3 °F 29.50 in SE 2.0 mph 3.0 mph 84% 0.00 in
19:14 39.8 °F 35.4 °F 29.50 in SSE 2.0 mph 4.0 mph 84% 0.00 in
19:19 39.8 °F 35.4 °F 29.50 in SSW 1.0 mph 4.0 mph 84% 0.00 in
19:24 39.8 °F 35.4 °F 29.50 in South 2.0 mph 5.0 mph 84% 0.00 in
19:29 39.9 °F 35.5 °F 29.50 in SSW 4.0 mph 4.0 mph 84% 0.00 in
19:34 39.9 °F 35.5 °F 29.49 in South 3.0 mph 5.0 mph 84% 0.00 in
19:39 40.0 °F 35.6 °F 29.50 in South 3.0 mph 5.0 mph 84% 0.00 in
19:44 40.1 °F 35.7 °F 29.49 in South 4.0 mph 5.0 mph 84% 0.00 in
19:49 40.2 °F 35.8 °F 29.50 in South 5.0 mph 6.0 mph 84% 0.00 in
19:54 40.3 °F 35.8 °F 29.50 in South 3.0 mph 7.0 mph 84% 0.00 in
19:59 40.4 °F 35.9 °F 29.49 in South 3.0 mph 7.0 mph 84% 0.00 in
20:04 40.4 °F 35.9 °F 29.49 in South 2.0 mph 5.0 mph 84% 0.00 in
20:09 40.6 °F 36.1 °F 29.49 in South 3.0 mph 5.0 mph 84% 0.00 in
20:14 40.6 °F 36.1 °F 29.48 in South 4.0 mph 6.0 mph 84% 0.00 in
20:19 40.8 °F 36.6 °F 29.48 in SSW 2.0 mph 7.0 mph 85% 0.00 in
20:24 41.0 °F 36.8 °F 29.48 in SSW 3.0 mph 7.0 mph 85% 0.00 in
20:29 41.1 °F 36.9 °F 29.48 in SSW 3.0 mph 6.0 mph 85% 0.00 in
20:34 41.2 °F 37.0 °F 29.48 in SSW 2.0 mph 5.0 mph 85% 0.00 in
20:39 41.4 °F 37.2 °F 29.48 in SW 3.0 mph 4.0 mph 85% 0.00 in
20:44 41.6 °F 37.4 °F 29.48 in SW 2.0 mph 3.0 mph 85% 0.00 in
20:49 41.7 °F 37.8 °F 29.48 in SW 1.0 mph 4.0 mph 86% 0.00 in
20:54 41.9 °F 38.3 °F 29.48 in SW 3.0 mph 7.0 mph 87% 0.00 in
20:59 42.2 °F 38.9 °F 29.47 in SW 3.0 mph 7.0 mph 88% 0.00 in
21:04 42.6 °F 39.3 °F 29.47 in SW 6.0 mph 7.0 mph 88% 0.01 in
21:09 42.9 °F 39.9 °F 29.47 in SW 2.0 mph 8.0 mph 89% 0.01 in
21:14 43.2 °F 40.2 °F 29.47 in SW 4.0 mph 9.0 mph 89% 0.01 in
21:19 43.4 °F 40.4 °F 29.46 in WSW 5.0 mph 8.0 mph 89% 0.01 in
21:24 43.6 °F 40.3 °F 29.47 in SW 4.0 mph 8.0 mph 88% 0.01 in
21:29 43.8 °F 40.5 °F 29.46 in SW 5.0 mph 12.0 mph 88% 0.01 in
21:34 44.2 °F 40.9 °F 29.46 in SW 6.0 mph 12.0 mph 88% 0.01 in
21:39 44.5 °F 40.9 °F 29.46 in SW 7.0 mph 12.0 mph 87% 0.01 in
21:44 44.8 °F 41.2 °F 29.46 in WSW 8.0 mph 15.0 mph 87% 0.01 in
21:49 45.2 °F 41.3 °F 29.46 in WSW 8.0 mph 17.0 mph 86% 0.01 in
21:54 45.5 °F 41.6 °F 29.45 in WSW 9.0 mph 16.0 mph 86% 0.01 in
21:59 45.6 °F 41.4 °F 29.45 in SSE 8.0 mph 18.0 mph 85% 0.01 in
22:04 45.6 °F 41.4 °F 29.45 in WSW 4.0 mph 14.0 mph 85% 0.00 in
22:09 45.6 °F 41.4 °F 29.45 in SW 5.0 mph 13.0 mph 85% 0.00 in
22:14 45.5 °F 41.3 °F 29.45 in WSW 8.0 mph 16.0 mph 85% 0.00 in
22:19 45.6 °F 41.4 °F 29.45 in SW 8.0 mph 13.0 mph 85% 0.00 in
22:24 45.6 °F 41.4 °F 29.45 in SW 7.0 mph 16.0 mph 85% 0.00 in
22:29 45.7 °F 41.4 °F 29.45 in WSW 8.0 mph 16.0 mph 85% 0.00 in
22:34 45.7 °F 41.4 °F 29.45 in WSW 8.0 mph 15.0 mph 85% 0.00 in
22:39 45.8 °F 41.5 °F 29.44 in WSW 8.0 mph 15.0 mph 85% 0.00 in
22:44 45.8 °F 41.5 °F 29.45 in WSW 8.0 mph 15.0 mph 85% 0.00 in
22:49 45.9 °F 41.6 °F 29.44 in WSW 8.0 mph 16.0 mph 85% 0.00 in
22:54 46.0 °F 41.7 °F 29.44 in West 7.0 mph 16.0 mph 85% 0.00 in
22:59 46.2 °F 41.6 °F 29.44 in West 11.0 mph 17.0 mph 84% 0.00 in
23:04 46.3 °F 41.7 °F 29.44 in WSW 10.0 mph 18.0 mph 84% 0.00 in
23:09 46.3 °F 41.7 °F 29.44 in WSW 10.0 mph 18.0 mph 84% 0.00 in
23:14 46.4 °F 41.5 °F 29.43 in WSW 7.0 mph 15.0 mph 83% 0.00 in
23:19 46.5 °F 41.6 °F 29.43 in SW 16.0 mph 16.0 mph 83% 0.00 in
23:24 46.6 °F 41.7 °F 29.43 in West 10.0 mph 19.0 mph 83% 0.00 in
23:29 46.7 °F 41.8 °F 29.43 in West 8.0 mph 20.0 mph 83% 0.00 in
23:34 46.7 °F 41.5 °F 29.43 in WSW 10.0 mph 21.0 mph 82% 0.00 in
23:39 46.8 °F 41.6 °F 29.43 in WSW 10.0 mph 21.0 mph 82% 0.00 in
23:44 47.0 °F 41.8 °F 29.43 in WSW 9.0 mph 17.0 mph 82% 0.00 in
23:49 46.8 °F 41.3 °F 29.42 in WSW 8.0 mph 17.0 mph 81% 0.00 in
23:54 46.3 °F 40.8 °F 29.42 in SW 10.0 mph 19.0 mph 81% 0.00 in
23:59 45.8 °F 40.6 °F 29.42 in WSW 8.0 mph 15.0 mph 82% 0.00 in
Buffalo, New York, USA
Compliments of Weather Underground - 2.5 mb